createdAt,value
2022-11-13T00:01:54.703Z,21.10
2022-11-13T00:07:20.108Z,21.10
2022-11-13T00:12:45.794Z,21.10
2022-11-13T00:18:09.322Z,21.10
2022-11-13T00:23:34.887Z,21.10
2022-11-13T00:29:02.618Z,21.10
2022-11-13T00:34:46.311Z,21.00
2022-11-13T00:40:07.888Z,21.00
2022-11-13T00:45:30.442Z,20.90
2022-11-13T00:50:53.406Z,20.90
2022-11-13T00:56:15.355Z,20.90
2022-11-13T01:01:37.738Z,20.90
2022-11-13T01:07:00.712Z,20.90
2022-11-13T01:12:23.052Z,20.90
2022-11-13T01:17:45.571Z,20.90
2022-11-13T01:23:08.348Z,20.80
2022-11-13T01:28:30.683Z,20.80
2022-11-13T01:33:53.944Z,20.80
2022-11-13T01:39:16.602Z,20.80
2022-11-13T01:44:52.474Z,20.80
2022-11-13T01:50:15.427Z,20.80
2022-11-13T01:55:38.082Z,20.80
2022-11-13T02:01:00.639Z,20.70
2022-11-13T02:06:24.527Z,20.90
2022-11-13T02:11:47.287Z,21.10
2022-11-13T02:17:14.748Z,21.40
2022-11-13T02:23:01.455Z,21.50
2022-11-13T02:28:23.906Z,21.70
2022-11-13T02:33:46.256Z,21.70
2022-11-13T02:39:11.333Z,21.80
2022-11-13T02:44:33.518Z,21.90
2022-11-13T02:49:56.729Z,22.00
2022-11-13T02:55:19.750Z,22.00
2022-11-13T03:00:42.109Z,22.10
2022-11-13T03:06:04.554Z,22.20
2022-11-13T03:11:27.315Z,22.20
2022-11-13T03:16:49.871Z,22.30
2022-11-13T03:22:12.425Z,22.40
2022-11-13T03:27:34.777Z,22.40
2022-11-13T03:32:58.146Z,22.40
2022-11-13T03:38:20.295Z,22.50
2022-11-13T03:43:43.049Z,22.60
2022-11-13T03:49:05.401Z,22.50
2022-11-13T03:54:27.958Z,22.50
2022-11-13T03:59:50.104Z,22.40
2022-11-13T04:05:12.352Z,22.40
2022-11-13T04:10:34.703Z,22.30
2022-11-13T04:15:56.949Z,22.20
2022-11-13T04:21:19.401Z,22.20
2022-11-13T04:26:41.956Z,22.10
2022-11-13T04:32:04.612Z,22.00
2022-11-13T04:37:27.065Z,21.90
2022-11-13T04:42:49.111Z,21.90
2022-11-13T04:48:11.459Z,21.80
2022-11-13T04:53:35.038Z,21.80
2022-11-13T04:58:57.183Z,21.70
2022-11-13T05:04:19.940Z,21.70
2022-11-13T05:09:42.496Z,21.70
2022-11-13T05:15:05.357Z,21.60
2022-11-13T05:20:27.604Z,21.60
2022-11-13T05:25:50.063Z,21.50
2022-11-13T05:31:15.272Z,21.50
2022-11-13T05:36:38.338Z,21.50
2022-11-13T05:42:00.996Z,21.40
2022-11-13T05:47:25.082Z,21.40
2022-11-13T05:52:48.461Z,21.40
2022-11-13T05:58:13.166Z,21.30
2022-11-13T06:03:36.433Z,21.30
2022-11-13T06:09:01.088Z,21.20
2022-11-13T06:14:23.490Z,21.20
2022-11-13T06:19:46.147Z,21.20
2022-11-13T06:25:08.840Z,21.20
2022-11-13T06:30:31.471Z,21.20
2022-11-13T06:35:54.224Z,21.10
2022-11-13T06:41:19.360Z,21.10
2022-11-13T06:46:41.889Z,21.10
2022-11-13T06:52:04.445Z,21.10
2022-11-13T06:57:27.002Z,21.10
2022-11-13T07:02:53.885Z,21.10
2022-11-13T07:08:20.709Z,21.00
2022-11-13T07:13:44.284Z,21.00
2022-11-13T07:19:11.237Z,21.00
2022-11-13T07:24:37.145Z,21.00
2022-11-13T07:30:04.253Z,21.00
2022-11-13T07:35:34.160Z,20.90
2022-11-13T07:40:59.195Z,20.90
2022-11-13T07:46:23.192Z,20.90
2022-11-13T07:51:45.499Z,20.90
2022-11-13T07:57:13.079Z,20.90
2022-11-13T08:02:37.790Z,20.90
2022-11-13T08:08:00.837Z,20.90
2022-11-13T08:13:26.773Z,21.30
2022-11-13T08:18:51.461Z,21.50
2022-11-13T08:24:24.789Z,21.60
2022-11-13T08:30:03.149Z,21.90
2022-11-13T08:35:29.383Z,21.90
2022-11-13T08:41:08.359Z,22.00
2022-11-13T08:46:56.720Z,22.20
2022-11-13T08:52:26.122Z,22.30
2022-11-13T08:57:51.940Z,22.40
2022-11-13T09:03:25.706Z,22.40
2022-11-13T09:08:57.008Z,22.50
2022-11-13T09:14:39.113Z,22.50
2022-11-13T09:20:22.993Z,22.60
2022-11-13T09:26:14.767Z,22.70
2022-11-13T09:31:41.549Z,22.60
2022-11-13T09:37:03.717Z,22.60
2022-11-13T09:42:29.189Z,22.50
2022-11-13T09:47:53.656Z,22.40
2022-11-13T09:53:17.367Z,22.40
2022-11-13T09:58:50.563Z,22.40
2022-11-13T10:04:16.392Z,22.40
2022-11-13T10:10:01.271Z,22.30
2022-11-13T10:15:27.165Z,22.20
2022-11-13T10:21:09.431Z,22.20
2022-11-13T10:26:36.001Z,22.10
2022-11-13T10:32:54.548Z,22.10
2022-11-13T10:38:46.329Z,22.10
2022-11-13T10:44:35.556Z,22.00
2022-11-13T10:50:09.988Z,22.00
2022-11-13T10:55:41.207Z,22.00
2022-11-13T11:01:15.029Z,21.90
2022-11-13T11:12:34.104Z,21.80
2022-11-13T11:18:07.124Z,21.70
2022-11-13T11:24:03.552Z,21.70
2022-11-13T11:29:39.716Z,21.60
2022-11-13T11:35:28.170Z,21.60
2022-11-13T11:40:58.049Z,21.60
2022-11-13T11:46:29.719Z,21.50
2022-11-13T11:52:12.970Z,21.50
2022-11-13T11:58:27.413Z,21.50
2022-11-13T12:04:05.216Z,21.50
2022-11-13T12:09:32.521Z,21.50
2022-11-13T12:15:16.314Z,21.40
2022-11-13T12:20:45.828Z,21.40
2022-11-13T12:26:45.745Z,21.30
2022-11-13T12:32:28.862Z,21.30
2022-11-13T12:37:53.972Z,21.20
2022-11-13T12:43:16.835Z,21.20
2022-11-13T12:48:50.347Z,21.20
2022-11-13T12:54:13.313Z,21.20
2022-11-13T12:59:45.251Z,21.20
2022-11-13T13:05:13.882Z,21.20
2022-11-13T13:10:56.683Z,21.30
2022-11-13T13:16:28.340Z,21.30
2022-11-13T13:21:51.408Z,21.30
2022-11-13T13:27:38.937Z,21.30
2022-11-13T13:33:16.005Z,21.20
2022-11-13T13:38:56.482Z,21.20
2022-11-13T13:44:53.422Z,21.20
2022-11-13T13:50:22.000Z,21.20
2022-11-13T13:55:56.673Z,21.20
2022-11-13T14:01:56.291Z,21.10
2022-11-13T14:07:38.959Z,21.10
2022-11-13T14:13:01.103Z,21.20
2022-11-13T14:18:24.010Z,21.20
2022-11-13T14:23:50.311Z,21.10
2022-11-13T14:29:46.222Z,21.20
2022-11-13T14:35:20.847Z,21.10
2022-11-13T14:40:55.703Z,21.20
2022-11-13T14:46:44.643Z,21.10
2022-11-13T14:52:07.402Z,21.10
2022-11-13T14:57:30.369Z,21.10
2022-11-13T15:02:57.357Z,21.10
2022-11-13T15:08:36.153Z,21.10
2022-11-13T15:14:20.149Z,21.00
2022-11-13T15:19:51.774Z,21.00
2022-11-13T15:25:21.161Z,21.00
2022-11-13T15:30:55.497Z,21.10
2022-11-13T15:36:47.823Z,21.10
2022-11-13T15:42:23.202Z,21.00
2022-11-13T15:47:59.539Z,21.10
2022-11-13T15:53:23.119Z,21.00
2022-11-13T15:59:03.177Z,21.00
2022-11-13T16:04:55.949Z,21.00
2022-11-13T16:10:31.799Z,20.90
2022-11-13T16:16:06.200Z,20.90
2022-11-13T16:21:53.147Z,20.90
2022-11-13T16:27:23.644Z,20.90
2022-11-13T16:32:58.019Z,20.90
2022-11-13T16:38:34.132Z,20.90
2022-11-13T16:44:00.579Z,20.90
2022-11-13T16:49:43.563Z,20.80
2022-11-13T16:55:11.360Z,20.90
2022-11-13T17:00:42.503Z,20.90
2022-11-13T17:06:27.158Z,20.90
2022-11-13T17:11:50.452Z,20.80
2022-11-13T17:17:21.702Z,20.80
2022-11-13T17:22:49.376Z,20.80
2022-11-13T17:28:14.416Z,21.00
2022-11-13T17:33:41.342Z,21.40
2022-11-13T17:39:12.881Z,21.60
2022-11-13T17:45:04.298Z,21.80
2022-11-13T17:50:35.505Z,21.90
2022-11-13T17:56:14.153Z,22.00
2022-11-13T18:01:54.417Z,22.10
2022-11-13T18:07:40.438Z,22.30
2022-11-13T18:13:09.104Z,22.30
2022-11-13T18:18:45.411Z,22.40
2022-11-13T18:24:21.217Z,22.50
2022-11-13T18:29:46.171Z,22.60
2022-11-13T18:35:17.147Z,22.70
2022-11-13T18:41:06.277Z,22.70
2022-11-13T18:46:35.077Z,22.70
2022-11-13T18:52:06.227Z,22.60
2022-11-13T18:57:39.985Z,22.50
2022-11-13T19:03:17.242Z,22.40
2022-11-13T19:08:41.720Z,22.40
2022-11-13T19:14:18.531Z,22.40
2022-11-13T19:20:00.807Z,22.30
2022-11-13T19:25:41.169Z,22.30
2022-11-13T19:31:11.986Z,22.20
2022-11-13T19:36:42.233Z,22.10
2022-11-13T19:42:07.230Z,22.00
2022-11-13T19:47:32.693Z,22.00
2022-11-13T19:52:55.023Z,21.90
2022-11-13T19:58:17.577Z,21.90
2022-11-13T20:03:48.021Z,21.80
2022-11-13T20:09:11.382Z,21.80
2022-11-13T20:14:49.805Z,21.80
2022-11-13T20:20:15.636Z,21.70
2022-11-13T20:26:07.163Z,21.70
2022-11-13T20:31:34.433Z,21.60
2022-11-13T20:37:00.434Z,21.60
2022-11-13T20:42:28.198Z,21.60
2022-11-13T20:48:01.957Z,21.50
2022-11-13T20:53:26.966Z,21.50
2022-11-13T20:58:59.514Z,21.40
2022-11-13T21:04:23.311Z,21.40
2022-11-13T21:09:50.197Z,21.40
2022-11-13T21:15:19.061Z,21.40
2022-11-13T21:20:48.689Z,21.30
2022-11-13T21:26:19.315Z,21.30
2022-11-13T21:31:42.480Z,21.20
2022-11-13T21:37:21.721Z,21.20
2022-11-13T21:42:44.064Z,21.10
2022-11-13T21:48:06.794Z,21.10
2022-11-13T21:53:29.483Z,21.20
2022-11-13T21:58:51.631Z,21.10
2022-11-13T22:04:14.283Z,21.10
2022-11-13T22:09:42.394Z,21.10
2022-11-13T22:15:05.092Z,21.10
2022-11-13T22:20:27.635Z,21.00
2022-11-13T22:25:57.981Z,21.00
2022-11-13T22:31:25.712Z,20.90
2022-11-13T22:36:48.082Z,20.90
2022-11-13T22:42:10.757Z,20.90
2022-11-13T22:47:38.056Z,20.90
2022-11-13T22:53:04.456Z,20.80
2022-11-13T22:58:32.641Z,20.80
2022-11-13T23:03:58.046Z,20.80
2022-11-13T23:09:30.582Z,20.80
2022-11-13T23:14:55.274Z,20.70
2022-11-13T23:20:18.698Z,20.70
2022-11-13T23:25:46.538Z,20.70
2022-11-13T23:31:11.452Z,20.90
2022-11-13T23:36:34.828Z,21.00
2022-11-13T23:41:57.599Z,21.20
2022-11-13T23:47:20.144Z,21.50
2022-11-13T23:52:42.595Z,21.80
2022-11-13T23:58:08.131Z,22.00
